Airfield :
LOGIN :

Register | Disclaimer

   EN    FR    IT 

 










Legend :    VFR   Marginal VFR   IFR   Intensive IFR   Very Intensive IFR
Visi :
Ceiling :
>= 8 km
>= 3000ft
5 to 8 km
1000 to 3000 ft
1500m to 5 km
500 to 1000 ft
800 to 1500m
200 to 500 ft
< 800m
< 200 ft
Symbols :   Thunderstorms  Fog  Heavy snow  Heavy precipitations  Wind > 20 kt
SIGMETs :     Misc.  Thunderstorms  Icing  Turbulence  Mountain Waves  Volcanic Ashes







- Airport Elevation : 256 ft
- IATA code : CFR
- Download approach charts


LFRK - Caen

CURRENT METAR :
  • 142230Z AUTO 28007KT 9999 OVC025 18/16 Q1021

EXPIRED METARs :
  • 142200Z AUTO 28008KT 9999 OVC025 18/16 Q1021
  • 142130Z AUTO 27007KT 9999 BKN014 OVC028 18/16 Q1021
  • 142100Z AUTO 27007KT 9999 BKN017 OVC028 18/16 Q1021
  • 142030Z AUTO 27009KT 9999 BKN023 BKN140 18/15 Q1021
  • 142000Z AUTO 26006KT CAVOK 17/15 Q1021 TEMPO BKN012

TAF AMD TAF LFRK
Valid from the 14 at 18:00 until the 15 at 00:00 UTC


141848Z 1418/1424 30010KT 9999 SCT025
TEMPO 1418/1424 BKN012
Met : +33 2 31 26 68 11
No reported NOTAMs for that airfield.



MET'MAP, your aeronautical weather chart ! - Copyright ORBIFLY December 2007 - Disclaimer

ORBIFLY MET'MAP TEAM :

Programming & Development : Alexandra Zaïnal
Concept & Development : Baudouin d'Aumeries
Co-Development & Prog : Marc-Olivier Méhu
Technical & hardware support : Manuel Goepfert

Contact : metmap@orbifly.com




SOURCES & CREDITS :

   NOAA